sensor_id;sensor_type;location;lat;lon;timestamp;pressure;altitude;pressure_sealevel;temperature;humidity
55466;BME280;41329;41.594;23.810;2022-11-20T00:01:30;94971.66;;;17.65;63.28
55466;BME280;41329;41.594;23.810;2022-11-20T00:03:55;94968.06;;;17.65;63.14
55466;BME280;41329;41.594;23.810;2022-11-20T00:06:21;94957.69;;;17.65;62.95
55466;BME280;41329;41.594;23.810;2022-11-20T00:08:47;94963.47;;;17.55;63.34
55466;BME280;41329;41.594;23.810;2022-11-20T00:11:14;94971.78;;;17.58;63.33
55466;BME280;41329;41.594;23.810;2022-11-20T00:13:40;94964.72;;;17.50;63.57
55466;BME280;41329;41.594;23.810;2022-11-20T00:16:06;94963.03;;;17.56;63.29
55466;BME280;41329;41.594;23.810;2022-11-20T00:18:32;94960.41;;;17.46;63.53
55466;BME280;41329;41.594;23.810;2022-11-20T00:21:02;94953.53;;;17.50;63.54
55466;BME280;41329;41.594;23.810;2022-11-20T00:23:27;94950.09;;;17.39;63.75
55466;BME280;41329;41.594;23.810;2022-11-20T00:25:52;94948.44;;;17.45;63.64
55466;BME280;41329;41.594;23.810;2022-11-20T00:28:18;94939.69;;;17.43;63.58
55466;BME280;41329;41.594;23.810;2022-11-20T00:30:43;94949.31;;;17.39;63.61
55466;BME280;41329;41.594;23.810;2022-11-20T00:33:08;94953.72;;;17.40;63.75
55466;BME280;41329;41.594;23.810;2022-11-20T00:35:33;94941.50;;;17.53;63.16
55466;BME280;41329;41.594;23.810;2022-11-20T00:37:59;94947.63;;;17.45;63.31
55466;BME280;41329;41.594;23.810;2022-11-20T00:40:24;94945.09;;;17.54;62.89
55466;BME280;41329;41.594;23.810;2022-11-20T00:42:49;94932.50;;;17.42;63.28
55466;BME280;41329;41.594;23.810;2022-11-20T00:45:15;94919.56;;;17.25;64.12
55466;BME280;41329;41.594;23.810;2022-11-20T00:47:40;94926.03;;;17.22;64.44
55466;BME280;41329;41.594;23.810;2022-11-20T00:50:05;94920.53;;;17.42;63.70
55466;BME280;41329;41.594;23.810;2022-11-20T00:52:31;94920.78;;;17.24;64.53
55466;BME280;41329;41.594;23.810;2022-11-20T00:54:56;94925.84;;;17.33;64.33
55466;BME280;41329;41.594;23.810;2022-11-20T00:57:21;94924.31;;;17.28;64.55
55466;BME280;41329;41.594;23.810;2022-11-20T00:59:46;94925.88;;;17.29;64.62
55466;BME280;41329;41.594;23.810;2022-11-20T01:02:12;94919.81;;;17.34;64.41
55466;BME280;41329;41.594;23.810;2022-11-20T01:04:37;94920.88;;;17.44;64.19
55466;BME280;41329;41.594;23.810;2022-11-20T01:07:02;94932.38;;;17.23;65.31
55466;BME280;41329;41.594;23.810;2022-11-20T01:09:27;94935.91;;;17.27;64.96
55466;BME280;41329;41.594;23.810;2022-11-20T01:11:53;94944.97;;;17.34;64.54
55466;BME280;41329;41.594;23.810;2022-11-20T01:14:18;94938.28;;;17.28;64.77
55466;BME280;41329;41.594;23.810;2022-11-20T01:16:45;94941.25;;;17.18;65.37
55466;BME280;41329;41.594;23.810;2022-11-20T01:19:13;94948.06;;;17.17;65.43
55466;BME280;41329;41.594;23.810;2022-11-20T01:21:40;94960.13;;;17.37;64.69
55466;BME280;41329;41.594;23.810;2022-11-20T01:24:06;94954.09;;;17.38;64.59
55466;BME280;41329;41.594;23.810;2022-11-20T01:26:33;94954.09;;;17.38;64.15
55466;BME280;41329;41.594;23.810;2022-11-20T01:28:59;94950.44;;;17.18;64.86
55466;BME280;41329;41.594;23.810;2022-11-20T01:31:34;94949.91;;;17.27;64.60
55466;BME280;41329;41.594;23.810;2022-11-20T01:34:01;94961.09;;;17.27;64.44
55466;BME280;41329;41.594;23.810;2022-11-20T01:36:28;94958.13;;;17.37;64.15
55466;BME280;41329;41.594;23.810;2022-11-20T01:38:55;94942.53;;;17.40;64.00
55466;BME280;41329;41.594;23.810;2022-11-20T01:41:21;94934.94;;;17.40;63.90
55466;BME280;41329;41.594;23.810;2022-11-20T01:44:05;94926.78;;;17.49;63.57
55466;BME280;41329;41.594;23.810;2022-11-20T01:46:32;94929.00;;;17.35;63.74
55466;BME280;41329;41.594;23.810;2022-11-20T01:51:43;94928.00;;;17.48;63.25
55466;BME280;41329;41.594;23.810;2022-11-20T01:54:11;94921.25;;;17.46;63.37
55466;BME280;41329;41.594;23.810;2022-11-20T01:56:39;94910.25;;;17.32;63.71
55466;BME280;41329;41.594;23.810;2022-11-20T01:59:07;94915.25;;;17.47;63.28
55466;BME280;41329;41.594;23.810;2022-11-20T02:01:33;94922.66;;;17.31;63.42
55466;BME280;41329;41.594;23.810;2022-11-20T02:03:58;94914.84;;;17.22;63.91
55466;BME280;41329;41.594;23.810;2022-11-20T02:06:26;94900.41;;;17.24;63.89
55466;BME280;41329;41.594;23.810;2022-11-20T02:08:53;94894.41;;;17.25;63.66
55466;BME280;41329;41.594;23.810;2022-11-20T02:11:19;94891.50;;;17.32;63.15
55466;BME280;41329;41.594;23.810;2022-11-20T02:13:44;94904.47;;;17.46;62.64
55466;BME280;41329;41.594;23.810;2022-11-20T02:16:20;94911.22;;;17.48;62.46
55466;BME280;41329;41.594;23.810;2022-11-20T02:18:46;94910.66;;;17.57;62.08
55466;BME280;41329;41.594;23.810;2022-11-20T02:21:21;94912.06;;;17.45;62.44
55466;BME280;41329;41.594;23.810;2022-11-20T02:23:55;94881.97;;;17.53;62.21
55466;BME280;41329;41.594;23.810;2022-11-20T02:26:21;94873.28;;;17.47;62.33
55466;BME280;41329;41.594;23.810;2022-11-20T02:28:48;94882.19;;;17.62;61.91
55466;BME280;41329;41.594;23.810;2022-11-20T02:31:13;94887.09;;;17.58;61.93
55466;BME280;41329;41.594;23.810;2022-11-20T02:33:39;94884.44;;;17.70;61.57
55466;BME280;41329;41.594;23.810;2022-11-20T02:36:04;94885.50;;;17.76;61.40
55466;BME280;41329;41.594;23.810;2022-11-20T02:38:30;94889.75;;;17.84;60.93
55466;BME280;41329;41.594;23.810;2022-11-20T02:40:55;94888.19;;;17.83;60.80
55466;BME280;41329;41.594;23.810;2022-11-20T02:43:20;94893.00;;;17.83;61.16
55466;BME280;41329;41.594;23.810;2022-11-20T02:45:45;94894.94;;;17.86;61.04
55466;BME280;41329;41.594;23.810;2022-11-20T02:48:11;94888.19;;;17.83;61.22
55466;BME280;41329;41.594;23.810;2022-11-20T02:50:37;94886.69;;;17.79;61.26
55466;BME280;41329;41.594;23.810;2022-11-20T02:53:02;94884.75;;;17.76;61.36
55466;BME280;41329;41.594;23.810;2022-11-20T02:55:28;94891.69;;;17.68;61.59
55466;BME280;41329;41.594;23.810;2022-11-20T02:57:53;94887.53;;;17.76;61.39
55466;BME280;41329;41.594;23.810;2022-11-20T03:00:18;94891.50;;;17.78;61.12
55466;BME280;41329;41.594;23.810;2022-11-20T03:02:44;94894.72;;;17.77;61.10
55466;BME280;41329;41.594;23.810;2022-11-20T03:05:09;94890.34;;;17.76;61.31
55466;BME280;41329;41.594;23.810;2022-11-20T03:07:34;94875.41;;;17.63;61.97
55466;BME280;41329;41.594;23.810;2022-11-20T03:09:59;94876.66;;;17.58;62.31
55466;BME280;41329;41.594;23.810;2022-11-20T03:12:25;94872.91;;;17.68;62.11
55466;BME280;41329;41.594;23.810;2022-11-20T03:14:50;94867.84;;;17.60;62.12
55466;BME280;41329;41.594;23.810;2022-11-20T03:17:15;94852.06;;;17.50;62.71
55466;BME280;41329;41.594;23.810;2022-11-20T03:19:41;94849.00;;;17.41;63.01
55466;BME280;41329;41.594;23.810;2022-11-20T03:22:06;94849.91;;;17.34;63.37
55466;BME280;41329;41.594;23.810;2022-11-20T03:24:31;94844.25;;;17.38;63.12
55466;BME280;41329;41.594;23.810;2022-11-20T03:26:57;94856.13;;;17.22;63.78
55466;BME280;41329;41.594;23.810;2022-11-20T03:29:22;94862.88;;;17.25;63.88
55466;BME280;41329;41.594;23.810;2022-11-20T03:31:47;94865.94;;;17.07;64.35
55466;BME280;41329;41.594;23.810;2022-11-20T03:34:13;94871.06;;;17.12;64.41
55466;BME280;41329;41.594;23.810;2022-11-20T03:36:39;94868.75;;;17.07;64.45
55466;BME280;41329;41.594;23.810;2022-11-20T03:39:04;94867.84;;;17.14;64.34
55466;BME280;41329;41.594;23.810;2022-11-20T03:41:30;94875.97;;;17.05;64.48
55466;BME280;41329;41.594;23.810;2022-11-20T03:43:59;94882.47;;;17.21;64.30
55466;BME280;41329;41.594;23.810;2022-11-20T03:46:25;94883.22;;;17.25;64.00
55466;BME280;41329;41.594;23.810;2022-11-20T03:48:50;94875.94;;;17.31;63.93
55466;BME280;41329;41.594;23.810;2022-11-20T03:51:17;94875.44;;;17.36;63.45
55466;BME280;41329;41.594;23.810;2022-11-20T03:53:44;94870.59;;;17.40;63.28
55466;BME280;41329;41.594;23.810;2022-11-20T03:56:10;94876.19;;;17.40;63.12
55466;BME280;41329;41.594;23.810;2022-11-20T03:58:36;94881.22;;;17.49;62.86
55466;BME280;41329;41.594;23.810;2022-11-20T04:01:11;94880.47;;;17.48;63.04
55466;BME280;41329;41.594;23.810;2022-11-20T04:03:37;94875.94;;;17.54;62.69
55466;BME280;41329;41.594;23.810;2022-11-20T04:08:34;94874.38;;;17.53;62.96
55466;BME280;41329;41.594;23.810;2022-11-20T04:11:16;94875.16;;;17.54;62.83
55466;BME280;41329;41.594;23.810;2022-11-20T04:13:42;94884.72;;;17.56;62.70
55466;BME280;41329;41.594;23.810;2022-11-20T04:16:08;94871.84;;;17.36;63.33
55466;BME280;41329;41.594;23.810;2022-11-20T04:18:34;94869.22;;;17.02;64.33
55466;BME280;41329;41.594;23.810;2022-11-20T04:21:00;94868.63;;;17.14;64.07
55466;BME280;41329;41.594;23.810;2022-11-20T04:23:25;94870.56;;;17.17;63.79
55466;BME280;41329;41.594;23.810;2022-11-20T04:25:51;94867.91;;;17.10;64.22
55466;BME280;41329;41.594;23.810;2022-11-20T04:28:16;94869.63;;;17.27;63.49
55466;BME280;41329;41.594;23.810;2022-11-20T04:30:42;94871.91;;;17.32;63.21
55466;BME280;41329;41.594;23.810;2022-11-20T04:33:07;94865.09;;;17.33;63.02
55466;BME280;41329;41.594;23.810;2022-11-20T04:35:36;94866.09;;;17.23;63.45
55466;BME280;41329;41.594;23.810;2022-11-20T04:38:01;94867.91;;;17.10;63.49
55466;BME280;41329;41.594;23.810;2022-11-20T04:40:29;94851.88;;;17.14;63.53
55466;BME280;41329;41.594;23.810;2022-11-20T04:42:55;94850.03;;;17.27;63.10
55466;BME280;41329;41.594;23.810;2022-11-20T04:45:21;94845.53;;;17.10;63.45
55466;BME280;41329;41.594;23.810;2022-11-20T04:47:46;94850.41;;;17.06;63.77
55466;BME280;41329;41.594;23.810;2022-11-20T04:50:12;94850.16;;;17.20;63.30
55466;BME280;41329;41.594;23.810;2022-11-20T04:52:37;94846.13;;;17.21;63.25
55466;BME280;41329;41.594;23.810;2022-11-20T04:55:02;94850.50;;;16.99;63.80
55466;BME280;41329;41.594;23.810;2022-11-20T04:57:28;94843.91;;;17.13;63.37
55466;BME280;41329;41.594;23.810;2022-11-20T04:59:53;94850.09;;;17.01;63.54
55466;BME280;41329;41.594;23.810;2022-11-20T05:02:18;94876.88;;;16.98;63.16
55466;BME280;41329;41.594;23.810;2022-11-20T05:04:43;94868.63;;;17.14;62.56
55466;BME280;41329;41.594;23.810;2022-11-20T05:07:09;94851.53;;;17.32;61.73
55466;BME280;41329;41.594;23.810;2022-11-20T05:09:34;94852.41;;;17.52;61.04
55466;BME280;41329;41.594;23.810;2022-11-20T05:11:59;94849.84;;;17.61;60.79
55466;BME280;41329;41.594;23.810;2022-11-20T05:14:25;94851.66;;;17.71;60.51
55466;BME280;41329;41.594;23.810;2022-11-20T05:16:50;94858.66;;;17.59;61.09
55466;BME280;41329;41.594;23.810;2022-11-20T05:19:15;94858.00;;;17.75;60.82
55466;BME280;41329;41.594;23.810;2022-11-20T05:21:40;94851.28;;;17.69;61.02
55466;BME280;41329;41.594;23.810;2022-11-20T05:24:06;94856.75;;;17.76;60.92
55466;BME280;41329;41.594;23.810;2022-11-20T05:26:32;94859.41;;;17.83;60.53
55466;BME280;41329;41.594;23.810;2022-11-20T05:28:57;94844.13;;;17.88;60.43
55466;BME280;41329;41.594;23.810;2022-11-20T05:31:23;94863.09;;;17.80;60.33
55466;BME280;41329;41.594;23.810;2022-11-20T05:33:49;94866.66;;;17.80;60.53
55466;BME280;41329;41.594;23.810;2022-11-20T05:36:14;94854.94;;;17.66;61.00
55466;BME280;41329;41.594;23.810;2022-11-20T05:38:40;94850.78;;;17.74;60.89
55466;BME280;41329;41.594;23.810;2022-11-20T05:41:10;94860.72;;;17.78;60.96
55466;BME280;41329;41.594;23.810;2022-11-20T05:43:36;94862.19;;;17.83;60.56
55466;BME280;41329;41.594;23.810;2022-11-20T05:46:02;94863.13;;;17.76;60.93
55466;BME280;41329;41.594;23.810;2022-11-20T05:48:28;94865.06;;;17.79;61.09
55466;BME280;41329;41.594;23.810;2022-11-20T05:50:53;94875.34;;;17.86;60.81
55466;BME280;41329;41.594;23.810;2022-11-20T05:53:18;94879.50;;;17.78;61.21
55466;BME280;41329;41.594;23.810;2022-11-20T05:55:44;94880.94;;;17.86;61.07
55466;BME280;41329;41.594;23.810;2022-11-20T05:58:09;94891.28;;;17.89;60.99
55466;BME280;41329;41.594;23.810;2022-11-20T06:00:34;94891.28;;;17.89;61.11
55466;BME280;41329;41.594;23.810;2022-11-20T06:03:02;94885.31;;;17.87;61.12
55466;BME280;41329;41.594;23.810;2022-11-20T06:05:27;94883.25;;;17.91;60.89
55466;BME280;41329;41.594;23.810;2022-11-20T06:07:53;94893.38;;;17.85;61.22
55466;BME280;41329;41.594;23.810;2022-11-20T06:10:18;94897.72;;;17.86;61.27
55466;BME280;41329;41.594;23.810;2022-11-20T06:12:43;94904.34;;;17.76;61.65
55466;BME280;41329;41.594;23.810;2022-11-20T06:15:09;94905.47;;;17.78;61.63
55466;BME280;41329;41.594;23.810;2022-11-20T06:17:34;94914.00;;;17.71;61.84
55466;BME280;41329;41.594;23.810;2022-11-20T06:20:00;94909.31;;;17.65;62.09
55466;BME280;41329;41.594;23.810;2022-11-20T06:22:25;94914.38;;;17.73;61.85
55466;BME280;41329;41.594;23.810;2022-11-20T06:24:50;94905.63;;;17.48;62.69
55466;BME280;41329;41.594;23.810;2022-11-20T06:27:16;94903.41;;;17.59;62.26
55466;BME280;41329;41.594;23.810;2022-11-20T06:29:41;94896.44;;;17.71;61.92
55466;BME280;41329;41.594;23.810;2022-11-20T06:32:07;94898.84;;;17.69;61.96
55466;BME280;41329;41.594;23.810;2022-11-20T06:34:32;94901.00;;;17.61;62.25
55466;BME280;41329;41.594;23.810;2022-11-20T06:36:57;94900.88;;;17.68;61.99
55466;BME280;41329;41.594;23.810;2022-11-20T06:39:23;94894.44;;;17.48;62.81
55466;BME280;41329;41.594;23.810;2022-11-20T06:41:48;94895.72;;;17.44;62.95
55466;BME280;41329;41.594;23.810;2022-11-20T06:44:13;94885.69;;;17.20;63.45
55466;BME280;41329;41.594;23.810;2022-11-20T06:46:38;94889.59;;;17.26;63.58
55466;BME280;41329;41.594;23.810;2022-11-20T06:49:04;94883.38;;;17.15;64.07
55466;BME280;41329;41.594;23.810;2022-11-20T06:51:29;94886.34;;;17.04;64.41
55466;BME280;41329;41.594;23.810;2022-11-20T06:53:55;94895.16;;;17.03;64.71
55466;BME280;41329;41.594;23.810;2022-11-20T06:56:20;94901.19;;;17.01;64.82
55466;BME280;41329;41.594;23.810;2022-11-20T06:58:45;94897.44;;;17.11;64.78
55466;BME280;41329;41.594;23.810;2022-11-20T07:01:11;94899.19;;;17.02;65.17
55466;BME280;41329;41.594;23.810;2022-11-20T07:03:37;94905.56;;;17.02;65.17
55466;BME280;41329;41.594;23.810;2022-11-20T07:06:03;94910.66;;;17.07;65.09
55466;BME280;41329;41.594;23.810;2022-11-20T07:08:29;94919.56;;;17.25;64.54
55466;BME280;41329;41.594;23.810;2022-11-20T07:11:00;94919.88;;;17.08;65.06
55466;BME280;41329;41.594;23.810;2022-11-20T07:13:26;94918.97;;;17.14;65.05
55466;BME280;41329;41.594;23.810;2022-11-20T07:15:51;94920.38;;;17.26;64.70
55466;BME280;41329;41.594;23.810;2022-11-20T07:18:17;94910.34;;;17.28;64.83
55466;BME280;41329;41.594;23.810;2022-11-20T07:20:42;94916.28;;;17.30;64.92
55466;BME280;41329;41.594;23.810;2022-11-20T07:23:07;94923.75;;;17.40;64.56
55466;BME280;41329;41.594;23.810;2022-11-20T07:25:33;94916.84;;;17.45;64.65
55466;BME280;41329;41.594;23.810;2022-11-20T07:27:58;94927.94;;;17.52;64.45
55466;BME280;41329;41.594;23.810;2022-11-20T07:30:24;94920.28;;;17.56;64.42
55466;BME280;41329;41.594;23.810;2022-11-20T07:32:53;94920.19;;;17.59;64.32
55466;BME280;41329;41.594;23.810;2022-11-20T07:35:19;94910.91;;;17.66;64.04
55466;BME280;41329;41.594;23.810;2022-11-20T07:37:44;94909.97;;;17.72;63.81
55466;BME280;41329;41.594;23.810;2022-11-20T07:40:11;94906.28;;;17.79;63.55
55466;BME280;41329;41.594;23.810;2022-11-20T07:42:36;94913.38;;;17.83;63.38
55466;BME280;41329;41.594;23.810;2022-11-20T07:45:02;94911.56;;;17.73;63.57
55466;BME280;41329;41.594;23.810;2022-11-20T07:47:27;94925.31;;;17.88;63.18
55466;BME280;41329;41.594;23.810;2022-11-20T07:49:52;94928.22;;;17.80;63.05
55466;BME280;41329;41.594;23.810;2022-11-20T07:52:18;94927.88;;;17.55;63.54
55466;BME280;41329;41.594;23.810;2022-11-20T07:54:43;94936.63;;;17.57;63.18
55466;BME280;41329;41.594;23.810;2022-11-20T07:57:08;94929.41;;;17.60;63.54
55466;BME280;41329;41.594;23.810;2022-11-20T07:59:33;94912.53;;;17.63;63.85
55466;BME280;41329;41.594;23.810;2022-11-20T08:01:59;94910.66;;;17.80;63.34
55466;BME280;41329;41.594;23.810;2022-11-20T08:04:24;94909.22;;;17.92;62.77
55466;BME280;41329;41.594;23.810;2022-11-20T08:06:51;94907.69;;;17.67;62.87
55466;BME280;41329;41.594;23.810;2022-11-20T08:09:16;94895.97;;;17.72;62.73
55466;BME280;41329;41.594;23.810;2022-11-20T08:11:42;94899.75;;;17.86;62.15
55466;BME280;41329;41.594;23.810;2022-11-20T08:14:25;94901.56;;;17.96;62.04
55466;BME280;41329;41.594;23.810;2022-11-20T08:16:52;94911.47;;;18.00;61.79
55466;BME280;41329;41.594;23.810;2022-11-20T08:19:17;94912.47;;;17.90;61.75
55466;BME280;41329;41.594;23.810;2022-11-20T08:21:43;94906.22;;;17.83;61.71
55466;BME280;41329;41.594;23.810;2022-11-20T08:24:08;94915.44;;;17.79;61.82
55466;BME280;41329;41.594;23.810;2022-11-20T08:26:35;94912.66;;;17.79;61.65
55466;BME280;41329;41.594;23.810;2022-11-20T08:29:00;94904.38;;;17.72;61.65
55466;BME280;41329;41.594;23.810;2022-11-20T08:31:27;94907.44;;;17.58;62.03
55466;BME280;41329;41.594;23.810;2022-11-20T08:33:52;94902.06;;;17.67;62.14
55466;BME280;41329;41.594;23.810;2022-11-20T08:36:18;94898.31;;;17.77;61.71
55466;BME280;41329;41.594;23.810;2022-11-20T08:38:47;94893.66;;;17.91;61.43
55466;BME280;41329;41.594;23.810;2022-11-20T08:41:12;94896.09;;;17.88;61.09
55466;BME280;41329;41.594;23.810;2022-11-20T08:44:00;94889.03;;;17.80;61.43
55466;BME280;41329;41.594;23.810;2022-11-20T08:46:30;94886.50;;;17.90;61.09
55466;BME280;41329;41.594;23.810;2022-11-20T08:48:56;94896.16;;;17.85;61.10
55466;BME280;41329;41.594;23.810;2022-11-20T08:51:22;94900.72;;;17.99;60.74
55466;BME280;41329;41.594;23.810;2022-11-20T08:53:47;94908.50;;;17.88;60.57
55466;BME280;41329;41.594;23.810;2022-11-20T08:56:13;94899.88;;;17.78;60.80
55466;BME280;41329;41.594;23.810;2022-11-20T08:58:39;94891.38;;;17.86;60.72
55466;BME280;41329;41.594;23.810;2022-11-20T09:01:04;94888.19;;;17.83;60.55
55466;BME280;41329;41.594;23.810;2022-11-20T09:03:30;94887.75;;;17.85;60.70
55466;BME280;41329;41.594;23.810;2022-11-20T09:05:59;94881.31;;;17.88;60.90
55466;BME280;41329;41.594;23.810;2022-11-20T09:08:25;94874.06;;;17.91;60.62
55466;BME280;41329;41.594;23.810;2022-11-20T09:10:51;94880.00;;;17.92;60.60
55466;BME280;41329;41.594;23.810;2022-11-20T09:13:17;94877.50;;;17.98;60.42
55466;BME280;41329;41.594;23.810;2022-11-20T09:15:42;94882.03;;;17.92;60.73
55466;BME280;41329;41.594;23.810;2022-11-20T09:18:07;94878.22;;;18.02;60.51
55466;BME280;41329;41.594;23.810;2022-11-20T09:20:32;94878.66;;;18.20;60.18
55466;BME280;41329;41.594;23.810;2022-11-20T09:22:58;94879.38;;;18.24;59.80
55466;BME280;41329;41.594;23.810;2022-11-20T09:25:23;94885.78;;;18.25;59.60
55466;BME280;41329;41.594;23.810;2022-11-20T09:27:54;94877.38;;;18.25;59.55
55466;BME280;41329;41.594;23.810;2022-11-20T09:30:19;94877.09;;;18.39;59.34
55466;BME280;41329;41.594;23.810;2022-11-20T09:32:45;94867.03;;;18.41;59.37
55466;BME280;41329;41.594;23.810;2022-11-20T09:35:10;94860.72;;;18.57;58.88
55466;BME280;41329;41.594;23.810;2022-11-20T09:37:36;94846.56;;;18.44;59.07
55466;BME280;41329;41.594;23.810;2022-11-20T09:40:01;94854.41;;;18.53;59.05
55466;BME280;41329;41.594;23.810;2022-11-20T09:47:52;94831.44;;;18.22;59.60
55466;BME280;41329;41.594;23.810;2022-11-20T09:55:22;94827.22;;;17.95;60.36
55466;BME280;41329;41.594;23.810;2022-11-20T09:57:48;94825.03;;;18.02;60.25
55466;BME280;41329;41.594;23.810;2022-11-20T10:00:16;94825.88;;;18.19;59.71
55466;BME280;41329;41.594;23.810;2022-11-20T10:02:46;94834.66;;;18.21;59.71
55466;BME280;41329;41.594;23.810;2022-11-20T10:05:21;94831.66;;;18.12;60.02
55466;BME280;41329;41.594;23.810;2022-11-20T10:07:49;94824.03;;;18.32;59.50
55466;BME280;41329;41.594;23.810;2022-11-20T10:15:38;94815.50;;;18.00;60.22
55466;BME280;41329;41.594;23.810;2022-11-20T10:31:04;94797.97;;;18.15;59.83
55466;BME280;41329;41.594;23.810;2022-11-20T10:33:34;94794.03;;;18.13;59.79
55466;BME280;41329;41.594;23.810;2022-11-20T10:36:15;94805.03;;;18.04;59.98
55466;BME280;41329;41.594;23.810;2022-11-20T10:38:48;94797.84;;;18.03;59.94
55466;BME280;41329;41.594;23.810;2022-11-20T10:41:16;94800.78;;;17.96;60.17
55466;BME280;41329;41.594;23.810;2022-11-20T10:44:04;94798.28;;;18.01;59.95
55466;BME280;41329;41.594;23.810;2022-11-20T10:46:34;94796.47;;;18.11;59.58
55466;BME280;41329;41.594;23.810;2022-11-20T10:49:02;94790.94;;;18.07;59.91
55466;BME280;41329;41.594;23.810;2022-11-20T10:59:00;94760.28;;;18.20;59.38
55466;BME280;41329;41.594;23.810;2022-11-20T11:01:27;94761.13;;;18.17;58.98
55466;BME280;41329;41.594;23.810;2022-11-20T11:03:53;94757.41;;;18.23;58.97
55466;BME280;41329;41.594;23.810;2022-11-20T11:06:32;94767.44;;;18.21;59.04
55466;BME280;41329;41.594;23.810;2022-11-20T11:09:00;94763.97;;;18.33;58.62
55466;BME280;41329;41.594;23.810;2022-11-20T11:11:31;94756.41;;;18.14;59.11
55466;BME280;41329;41.594;23.810;2022-11-20T11:14:11;94760.81;;;18.15;59.08
55466;BME280;41329;41.594;23.810;2022-11-20T11:16:40;94758.19;;;18.24;58.70
55466;BME280;41329;41.594;23.810;2022-11-20T11:19:13;94757.06;;;18.21;58.74
55466;BME280;41329;41.594;23.810;2022-11-20T11:21:44;94754.97;;;18.06;59.11
55466;BME280;41329;41.594;23.810;2022-11-20T11:27:03;94743.72;;;18.09;59.02
55466;BME280;41329;41.594;23.810;2022-11-20T11:29:35;94748.56;;;18.25;58.96
55466;BME280;41329;41.594;23.810;2022-11-20T11:32:04;94751.84;;;18.39;58.80
55466;BME280;41329;41.594;23.810;2022-11-20T11:34:30;94744.00;;;18.15;60.19
55466;BME280;41329;41.594;23.810;2022-11-20T11:36:57;94755.22;;;17.95;61.07
55466;BME280;41329;41.594;23.810;2022-11-20T11:39:23;94744.94;;;17.88;61.26
55466;BME280;41329;41.594;23.810;2022-11-20T11:41:50;94754.66;;;17.84;61.87
55466;BME280;41329;41.594;23.810;2022-11-20T11:47:00;94765.34;;;17.69;63.23
55466;BME280;41329;41.594;23.810;2022-11-20T11:49:25;94770.03;;;17.76;63.43
55466;BME280;41329;41.594;23.810;2022-11-20T11:54:31;94760.53;;;17.70;64.29
55466;BME280;41329;41.594;23.810;2022-11-20T11:56:58;94760.53;;;17.70;64.78
55466;BME280;41329;41.594;23.810;2022-11-20T11:59:26;94767.00;;;17.67;65.49
55466;BME280;41329;41.594;23.810;2022-11-20T12:01:55;94766.72;;;17.81;65.51
55466;BME280;41329;41.594;23.810;2022-11-20T12:07:15;94759.13;;;17.82;65.51
55466;BME280;41329;41.594;23.810;2022-11-20T12:09:46;94762.53;;;17.89;65.77
55466;BME280;41329;41.594;23.810;2022-11-20T12:12:22;94774.16;;;17.88;65.96
55466;BME280;41329;41.594;23.810;2022-11-20T12:14:49;94763.41;;;17.86;66.07
55466;BME280;41329;41.594;23.810;2022-11-20T12:17:18;94759.66;;;17.92;65.67
55466;BME280;41329;41.594;23.810;2022-11-20T12:19:43;94767.78;;;17.67;66.31
55466;BME280;41329;41.594;23.810;2022-11-20T12:27:45;94764.97;;;17.67;66.44
55466;BME280;41329;41.594;23.810;2022-11-20T12:30:14;94768.16;;;17.69;66.21
55466;BME280;41329;41.594;23.810;2022-11-20T12:35:29;94779.41;;;17.66;66.52
55466;BME280;41329;41.594;23.810;2022-11-20T12:43:22;94769.16;;;17.59;66.65
55466;BME280;41329;41.594;23.810;2022-11-20T12:49:02;94775.56;;;17.37;67.70
55466;BME280;41329;41.594;23.810;2022-11-20T12:51:39;94774.91;;;17.29;68.21
55466;BME280;41329;41.594;23.810;2022-11-20T12:54:33;94785.16;;;17.36;68.17
55466;BME280;41329;41.594;23.810;2022-11-20T13:02:41;94806.25;;;17.17;69.00
55466;BME280;41329;41.594;23.810;2022-11-20T13:05:14;94813.69;;;17.27;69.08
55466;BME280;41329;41.594;23.810;2022-11-20T13:07:41;94816.28;;;17.15;70.11
55466;BME280;41329;41.594;23.810;2022-11-20T13:10:14;94799.75;;;17.24;70.44
55466;BME280;41329;41.594;23.810;2022-11-20T13:12:47;94782.72;;;17.18;71.88
55466;BME280;41329;41.594;23.810;2022-11-20T13:15:18;94785.34;;;17.25;71.48
55466;BME280;41329;41.594;23.810;2022-11-20T13:17:51;94771.69;;;17.31;71.66
55466;BME280;41329;41.594;23.810;2022-11-20T13:20:19;94763.66;;;17.33;71.52
55466;BME280;41329;41.594;23.810;2022-11-20T13:22:46;94762.75;;;17.39;71.41
55466;BME280;41329;41.594;23.810;2022-11-20T13:27:52;94754.41;;;17.36;72.13
55466;BME280;41329;41.594;23.810;2022-11-20T13:30:24;94758.34;;;17.38;71.80
55466;BME280;41329;41.594;23.810;2022-11-20T13:32:54;94758.41;;;17.35;71.98
55466;BME280;41329;41.594;23.810;2022-11-20T13:35:27;94745.72;;;17.30;72.03
55466;BME280;41329;41.594;23.810;2022-11-20T13:38:06;94744.09;;;17.33;72.01
55466;BME280;41329;41.594;23.810;2022-11-20T13:40:32;94739.69;;;17.32;72.35
55466;BME280;41329;41.594;23.810;2022-11-20T13:43:07;94742.44;;;17.35;71.86
55466;BME280;41329;41.594;23.810;2022-11-20T13:45:33;94746.72;;;17.43;71.14
55466;BME280;41329;41.594;23.810;2022-11-20T13:48:02;94751.06;;;17.44;70.84
55466;BME280;41329;41.594;23.810;2022-11-20T13:50:54;94755.94;;;17.40;70.83
55466;BME280;41329;41.594;23.810;2022-11-20T14:00:43;94752.34;;;17.40;71.19
55466;BME280;41329;41.594;23.810;2022-11-20T14:03:10;94756.03;;;17.33;71.42
55466;BME280;41329;41.594;23.810;2022-11-20T14:05:40;94766.16;;;17.27;71.58
55466;BME280;41329;41.594;23.810;2022-11-20T14:08:17;94769.81;;;17.24;71.69
55466;BME280;41329;41.594;23.810;2022-11-20T14:10:45;94774.47;;;17.31;71.09
55466;BME280;41329;41.594;23.810;2022-11-20T14:13:12;94773.19;;;17.35;70.81
55466;BME280;41329;41.594;23.810;2022-11-20T14:15:42;94775.56;;;17.37;70.98